Time;durP1;ratioP1;P1;durP2;ratioP2;P2;SDS_P1;SDS_P2;PMS_P1;PMS_P2;Temp;Humidity;BMP_temperature;BMP_pressure;BME280_temperature;BME280_humidity;BME280_pressure;Samples;Min_cycle;Max_cycle;Signal;HPM_P1;HPM_P2
2022/05/18 00:02:21;;;;;;;4.87;3.10;;;21.60;99.90;;;;;;1884988;76;21098;-77
2022/05/18 00:05:31;;;;;;;6.00;2.72;;;21.60;99.90;;;;;;1904367;75;21112;-77
2022/05/18 00:11:03;;;;;;;5.55;2.90;;;21.50;99.90;;;;;;1945834;72;22796;-77
2022/05/18 00:14:12;;;;;;;6.05;2.87;;;21.40;99.90;;;;;;1917616;75;21111;-77
2022/05/18 00:17:22;;;;;;;7.95;3.20;;;21.40;99.90;;;;;;1917659;75;21115;-76
2022/05/18 00:20:15;;;;;;;5.15;2.70;;;21.40;99.90;;;;;;1925834;73;21105;-77
2022/05/18 00:26:04;;;;;;;4.80;2.37;;;21.20;99.90;;;;;;1951047;72;22626;-77
2022/05/18 00:29:15;;;;;;;5.03;2.35;;;21.10;99.90;;;;;;1878478;75;21156;-78
2022/05/18 00:32:25;;;;;;;5.00;2.52;;;21.00;99.90;;;;;;1873304;76;21111;-77
2022/05/18 00:35:19;;;;;;;5.78;2.55;;;20.90;99.90;;;;;;1897612;75;21102;-77
2022/05/18 00:41:11;;;;;;;5.55;2.75;;;20.80;99.90;;;;;;1953937;72;22114;-77
2022/05/18 00:44:21;;;;;;;4.10;2.55;;;20.80;99.90;;;;;;1904131;75;21063;-77
2022/05/18 00:47:31;;;;;;;6.12;2.35;;;20.80;99.90;;;;;;1902175;75;21494;-76
2022/05/18 00:50:24;;;;;;;7.72;2.58;;;20.80;99.90;;;;;;1915938;75;21127;-77
2022/05/18 00:53:37;;;;;;;5.05;2.77;;;20.80;99.90;;;;;;1906040;75;21090;-77
2022/05/18 00:56:32;;;;;;;5.20;3.00;;;20.80;99.90;;;;;;1906840;75;21063;-77
2022/05/18 01:02:04;;;;;;;3.75;2.60;;;20.80;99.90;;;;;;1959254;72;22217;-77
2022/05/18 01:05:17;;;;;;;4.35;2.58;;;20.80;99.90;;;;;;1933488;73;21184;-77
2022/05/18 01:08:33;;;;;;;4.10;2.42;;;20.80;99.90;;;;;;1924685;73;21050;-77
2022/05/18 01:11:24;;;;;;;4.60;2.75;;;20.80;99.90;;;;;;1929581;73;21179;-77
2022/05/18 01:14:37;;;;;;;4.85;2.50;;;20.80;99.90;;;;;;1928520;73;21032;-76
2022/05/18 01:17:31;;;;;;;4.58;2.75;;;20.90;99.90;;;;;;1917576;73;21145;-76
2022/05/18 01:20:26;;;;;;;7.42;2.75;;;20.80;99.90;;;;;;1924661;73;21164;-77
2022/05/18 01:26:10;;;;;;;4.37;2.52;;;20.90;99.90;;;;;;1964308;72;22166;-76
2022/05/18 01:29:23;;;;;;;5.53;2.90;;;20.90;99.90;;;;;;1917716;75;21106;-76
2022/05/18 01:32:41;;;;;;;5.17;2.80;;;20.90;99.90;;;;;;1917573;75;21152;-77
2022/05/18 01:35:35;;;;;;;7.17;3.05;;;20.80;99.90;;;;;;1925519;73;21561;-76
2022/05/18 01:38:46;;;;;;;4.45;2.77;;;20.80;99.90;;;;;;1921013;73;21052;-76
2022/05/18 01:41:40;;;;;;;11.03;3.37;;;20.80;99.90;;;;;;1917697;75;21163;-77
2022/05/18 01:44:32;;;;;;;4.22;3.10;;;20.70;99.90;;;;;;1917654;75;21133;-76
2022/05/18 01:47:24;;;;;;;7.67;2.80;;;20.70;99.90;;;;;;1917685;75;21117;-77
2022/05/18 01:50:18;;;;;;;4.55;3.05;;;20.70;99.90;;;;;;1917562;75;21123;-77
2022/05/18 01:53:10;;;;;;;4.15;2.90;;;20.70;99.90;;;;;;1917760;75;21117;-76
2022/05/18 01:56:02;;;;;;;6.30;2.67;;;20.70;99.90;;;;;;1917796;75;21055;-76
2022/05/18 01:58:54;;;;;;;5.90;2.85;;;20.70;99.90;;;;;;1917731;75;21122;-77
2022/05/18 02:01:46;;;;;;;5.75;2.90;;;20.60;99.90;;;;;;1917768;75;21599;-77
2022/05/18 02:04:37;;;;;;;4.60;2.50;;;20.60;99.90;;;;;;1917478;75;21056;-76
2022/05/18 02:07:29;;;;;;;4.80;2.85;;;20.60;99.90;;;;;;1917697;75;21594;-76
2022/05/18 02:10:21;;;;;;;10.10;3.27;;;20.60;99.90;;;;;;1919931;73;21097;-77
2022/05/18 02:15:50;;;;;;;5.95;2.98;;;20.60;99.90;;;;;;1936730;72;22161;-79
2022/05/18 02:18:59;;;;;;;5.03;2.85;;;20.60;99.90;;;;;;1891560;74;21103;-77
2022/05/18 02:22:09;;;;;;;5.20;2.70;;;20.50;99.90;;;;;;1906890;75;21540;-77
2022/05/18 02:25:01;;;;;;;6.90;3.10;;;20.40;99.90;;;;;;1911804;75;21503;-76
2022/05/18 02:28:11;;;;;;;6.80;3.05;;;20.30;99.90;;;;;;1897718;75;21109;-77
2022/05/18 02:31:03;;;;;;;3.45;2.70;;;20.30;99.90;;;;;;1899770;75;21192;-76
2022/05/18 02:33:54;;;;;;;5.10;3.05;;;20.20;99.90;;;;;;1895527;75;21102;-77
2022/05/18 02:36:46;;;;;;;6.33;2.67;;;20.10;99.90;;;;;;1906758;75;21132;-77
2022/05/18 02:42:16;;;;;;;4.15;2.90;;;20.10;99.90;;;;;;1961825;72;22217;-77
2022/05/18 02:45:26;;;;;;;3.80;2.75;;;20.10;99.90;;;;;;1917775;75;21098;-77
2022/05/18 02:48:36;;;;;;;4.00;2.85;;;20.10;99.90;;;;;;1928109;73;21030;-77
2022/05/18 02:51:29;;;;;;;5.17;2.70;;;20.10;99.90;;;;;;1928646;73;21682;-77
2022/05/18 02:57:47;;;;;;;5.53;2.92;;;20.10;99.90;;;;;;1925722;73;21181;-77
2022/05/18 03:00:40;;;;;;;4.05;2.72;;;20.10;99.90;;;;;;1938257;73;21102;-77
2022/05/18 03:06:21;;;;;;;4.75;2.85;;;20.00;99.90;;;;;;1943064;72;22599;-77
2022/05/18 03:09:31;;;;;;;4.97;2.92;;;20.00;99.90;;;;;;1910555;74;21117;-77
2022/05/18 03:12:41;;;;;;;5.37;3.17;;;20.00;99.90;;;;;;1925616;73;21148;-76
2022/05/18 03:15:32;;;;;;;4.60;2.60;;;20.00;99.90;;;;;;1908595;74;21098;-76
2022/05/18 03:18:42;;;;;;;4.47;2.80;;;20.00;99.90;;;;;;1926097;73;21155;-76
2022/05/18 03:24:42;;;;;;;6.72;3.15;;;20.00;99.90;;;;;;1905278;75;21120;-77
2022/05/18 03:27:33;;;;;;;6.47;3.50;;;20.00;99.90;;;;;;1905613;75;21095;-77
2022/05/18 03:33:04;;;;;;;4.95;3.00;;;20.00;99.90;;;;;;1946824;72;22221;-77
2022/05/18 03:36:16;;;;;;;4.62;3.10;;;20.00;99.90;;;;;;1891944;75;21083;-77
2022/05/18 03:39:25;;;;;;;5.62;3.20;;;20.00;99.90;;;;;;1874374;75;21146;-77
2022/05/18 03:42:17;;;;;;;5.30;3.52;;;20.00;99.90;;;;;;1885793;75;21367;-76
2022/05/18 03:45:26;;;;;;;6.78;3.30;;;19.90;99.90;;;;;;1884658;75;21046;-77
2022/05/18 03:50:59;;;;;;;7.15;3.40;;;19.80;99.90;;;;;;1941528;72;22138;-77
2022/05/18 03:56:47;;;;;;;4.97;3.35;;;19.70;99.90;;;;;;1941274;72;22251;-77
2022/05/18 03:59:57;;;;;;;7.28;3.70;;;19.60;99.90;;;;;;1907113;74;21523;-77
2022/05/18 04:03:07;;;;;;;7.15;3.40;;;19.60;99.90;;;;;;1927958;74;21145;-78
2022/05/18 04:05:59;;;;;;;7.65;3.75;;;19.60;99.90;;;;;;1906829;75;21195;-76
2022/05/18 04:09:08;;;;;;;5.33;3.20;;;19.60;99.90;;;;;;1911557;74;21143;-77
2022/05/18 04:12:01;;;;;;;7.22;3.45;;;19.50;99.90;;;;;;1899094;75;21161;-77
2022/05/18 04:14:54;;;;;;;5.72;3.67;;;19.50;99.90;;;;;;1906256;74;21133;-77
2022/05/18 04:17:47;;;;;;;6.15;3.22;;;19.40;99.90;;;;;;1909993;74;21610;-77
2022/05/18 04:20:39;;;;;;;7.47;3.70;;;19.50;99.90;;;;;;1914851;74;21114;-76
2022/05/18 04:26:09;;;;;;;4.25;3.45;;;19.40;99.90;;;;;;1958493;72;22154;-77
2022/05/18 04:29:19;;;;;;;11.60;3.67;;;19.50;99.90;;;;;;1884846;76;21046;-77
2022/05/18 04:32:28;;;;;;;5.70;3.60;;;19.50;99.90;;;;;;1907077;75;21551;-77
2022/05/18 04:38:01;;;;;;;5.87;3.65;;;19.60;99.90;;;;;;1954102;72;22729;-77
2022/05/18 04:43:49;;;;;;;10.43;3.77;;;19.60;99.90;;;;;;1975202;72;23400;-77
2022/05/18 04:46:59;;;;;;;8.48;4.17;;;19.70;99.90;;;;;;1937874;73;21076;-77
2022/05/18 04:50:11;;;;;;;6.75;4.50;;;19.70;99.90;;;;;;1897131;73;21059;-77
2022/05/18 04:55:47;;;;;;;8.23;4.87;;;19.60;99.90;;;;;;1949021;72;22176;-76
2022/05/18 05:01:39;;;;;;;7.80;5.97;;;19.70;99.90;;;;;;1964403;72;22120;-77
2022/05/18 05:04:49;;;;;;;7.67;4.83;;;19.70;99.90;;;;;;1917322;75;21164;-77
2022/05/18 05:07:59;;;;;;;8.70;5.35;;;19.60;99.90;;;;;;1917580;75;21145;-78
2022/05/18 05:10:50;;;;;;;8.93;5.37;;;19.70;99.90;;;;;;1942351;73;21054;-78
2022/05/18 05:14:00;;;;;;;12.03;6.50;;;19.70;99.90;;;;;;1933315;73;21110;-77
2022/05/18 05:16:51;;;;;;;9.48;6.03;;;19.70;99.90;;;;;;1917469;75;21156;-77
2022/05/18 05:19:43;;;;;;;10.60;6.50;;;19.70;99.90;;;;;;1931606;73;21592;-77
2022/05/18 05:25:14;;;;;;;11.05;6.20;;;19.80;99.90;;;;;;1947963;72;22736;-77
2022/05/18 05:28:24;;;;;;;9.83;5.90;;;19.80;99.90;;;;;;1939956;73;21090;-77
2022/05/18 05:31:34;;;;;;;6.62;5.15;;;19.90;99.90;;;;;;1931122;73;21096;-77
2022/05/18 05:37:09;;;;;;;12.25;6.05;;;20.00;99.90;;;;;;1937301;72;22160;-78
2022/05/18 05:40:21;;;;;;;7.67;4.58;;;20.00;99.90;;;;;;1890802;75;21120;-77
2022/05/18 05:43:58;;;;;;;10.60;5.03;;;20.00;99.90;;;;;;1897508;75;21548;-79
2022/05/18 05:49:56;;;;;;;8.65;5.58;;;20.10;99.90;;;;;;1937113;72;22257;-77
2022/05/18 05:56:12;;;;;;;9.58;5.70;;;20.20;99.90;;;;;;1954226;72;22342;-77
2022/05/18 05:59:22;;;;;;;11.83;6.55;;;20.30;99.90;;;;;;1926995;73;21531;-77
2022/05/18 06:02:33;;;;;;;11.90;6.95;;;20.30;99.90;;;;;;1925276;73;21101;-77
2022/05/18 06:05:24;;;;;;;13.98;6.90;;;20.30;99.90;;;;;;1931867;73;21171;-77
2022/05/18 06:11:15;;;;;;;9.88;5.97;;;20.50;99.90;;;;;;1933184;72;22083;-78
2022/05/18 06:14:25;;;;;;;14.60;6.70;;;20.60;99.90;;;;;;1907869;74;21082;-77
2022/05/18 06:17:35;;;;;;;10.45;5.70;;;20.60;99.90;;;;;;1895373;75;21107;-76
2022/05/18 06:20:27;;;;;;;11.22;5.70;;;20.70;99.90;;;;;;1895373;75;21157;-76
2022/05/18 06:26:22;;;;;;;9.03;5.50;;;20.90;99.90;;;;;;1945061;72;22081;-78
2022/05/18 06:32:11;;;;;;;10.20;5.83;;;21.00;99.90;;;;;;1947633;72;22146;-77
2022/05/18 06:35:22;;;;;;;7.05;4.28;;;21.00;99.90;;;;;;1906596;75;21121;-77
2022/05/18 06:41:24;;;;;;;7.67;4.50;;;21.10;99.90;;;;;;1954600;72;22134;-77
2022/05/18 06:44:34;;;;;;;9.73;4.08;;;21.20;99.90;;;;;;1900058;74;21204;-77
2022/05/18 06:47:47;;;;;;;7.28;3.87;;;21.30;99.90;;;;;;1905575;75;21172;-77
2022/05/18 06:50:39;;;;;;;7.65;4.03;;;21.30;99.90;;;;;;1899383;75;21117;-78
2022/05/18 06:56:30;;;;;;;8.00;3.83;;;21.50;99.90;;;;;;1940980;72;22276;-77
2022/05/18 06:59:40;;;;;;;10.25;4.20;;;21.50;99.90;;;;;;1909917;75;21051;-77
2022/05/18 07:02:51;;;;;;;7.37;3.75;;;21.60;99.90;;;;;;1915963;75;21078;-77
2022/05/18 07:05:43;;;;;;;7.53;3.45;;;21.70;99.90;;;;;;1905288;75;21160;-77
2022/05/18 07:08:55;;;;;;;8.23;3.50;;;21.70;99.90;;;;;;1905180;75;21544;-78
2022/05/18 07:11:49;;;;;;;7.90;3.50;;;21.80;99.90;;;;;;1912411;75;21034;-79
2022/05/18 07:14:40;;;;;;;8.15;3.80;;;21.90;99.90;;;;;;1903200;75;21548;-79
2022/05/18 07:17:32;;;;;;;5.05;3.17;;;22.00;99.90;;;;;;1894706;75;21054;-77
2022/05/18 07:20:27;;;;;;;7.62;3.40;;;22.10;99.90;;;;;;1895884;75;21115;-77
2022/05/18 07:26:01;;;;;;;8.83;3.55;;;22.20;99.90;;;;;;1945916;72;22179;-77
2022/05/18 07:29:12;;;;;;;8.60;3.55;;;22.30;99.90;;;;;;1899773;75;21050;-77
2022/05/18 07:32:22;;;;;;;4.65;3.00;;;22.40;99.90;;;;;;1895520;75;21518;-78
2022/05/18 07:48:22;;;;;;;4.83;3.00;;;22.40;99.90;;;;;;1894641;74;22214;-78
2022/05/18 07:54:11;;;;;;;5.42;2.98;;;22.80;99.90;;;;;;1936545;72;22256;-77
2022/05/18 07:57:22;;;;;;;9.13;3.17;;;22.90;99.90;;;;;;1917526;75;21098;-78
2022/05/18 08:03:12;;;;;;;7.90;3.55;;;23.00;99.90;;;;;;1950896;72;22138;-79
2022/05/18 08:06:22;;;;;;;5.10;3.00;;;23.00;99.90;;;;;;1894810;75;21169;-77
2022/05/18 08:15:05;;;;;;;4.25;3.10;;;23.10;99.90;;;;;;1902764;75;21132;-77
2022/05/18 08:15:53;;;;;;;11.97;3.52;;;23.20;99.90;;;;;;1900263;75;21149;-77
2022/05/18 08:18:45;;;;;;;10.90;3.40;;;23.10;99.90;;;;;;1886295;75;21165;-77
2022/05/18 08:21:38;;;;;;;9.75;3.52;;;23.00;99.90;;;;;;1905116;75;21055;-77
2022/05/18 08:24:30;;;;;;;7.67;3.40;;;23.10;99.90;;;;;;1892163;75;21177;-77
2022/05/18 08:27:21;;;;;;;7.28;4.28;;;23.10;99.90;;;;;;1889806;74;21080;-77
2022/05/18 08:32:56;;;;;;;7.78;3.62;;;23.30;99.90;;;;;;1976214;72;22245;-77
2022/05/18 08:36:09;;;;;;;8.83;3.42;;;23.40;99.90;;;;;;1917359;75;21105;-79
2022/05/18 08:39:18;;;;;;;8.08;3.42;;;23.40;99.90;;;;;;1918001;73;21485;-78
2022/05/18 08:42:11;;;;;;;7.67;3.27;;;23.50;99.90;;;;;;1917398;75;21142;-78
2022/05/18 08:48:05;;;;;;;8.55;3.40;;;23.60;99.90;;;;;;1973527;72;22294;-79
2022/05/18 08:51:35;;;;;;;9.90;3.55;;;23.70;99.90;;;;;;1917386;75;21131;-77
2022/05/18 08:54:51;;;;;;;5.95;3.75;;;23.70;99.90;;;;;;1940732;73;21054;-78
2022/05/18 08:57:48;;;;;;;7.80;3.40;;;23.90;99.90;;;;;;1917580;75;21055;-78
2022/05/18 09:01:02;;;;;;;7.00;3.33;;;23.90;99.90;;;;;;1917745;75;21109;-78
2022/05/18 09:06:35;;;;;;;8.23;3.30;;;24.00;99.90;;;;;;1958446;72;22246;-77
2022/05/18 09:13:16;;;;;;;8.18;3.75;;;24.00;99.90;;;;;;1900113;75;21076;-78
2022/05/18 09:16:15;;;;;;;6.30;3.67;;;24.10;99.90;;;;;;1906537;75;21059;-78
2022/05/18 09:22:10;;;;;;;6.97;3.60;;;24.30;99.90;;;;;;1953202;72;22204;-78
2022/05/18 09:28:11;;;;;;;10.70;3.77;;;24.60;99.90;;;;;;1954736;72;22138;-77
2022/05/18 09:34:12;;;;;;;12.35;3.42;;;24.70;99.90;;;;;;1963001;72;22162;-77
2022/05/18 09:37:32;;;;;;;9.43;3.85;;;24.80;99.90;;;;;;1917659;75;21090;-77
2022/05/18 09:40:45;;;;;;;7.35;3.70;;;24.90;99.90;;;;;;1917581;75;21063;-77
2022/05/18 09:43:40;;;;;;;7.12;3.47;;;24.90;99.90;;;;;;1927209;73;21164;-78
2022/05/18 09:46:51;;;;;;;7.72;3.52;;;25.10;99.90;;;;;;1916448;73;21176;-77
2022/05/18 09:49:46;;;;;;;6.70;3.67;;;25.30;99.90;;;;;;1908452;75;21173;-78
2022/05/18 09:52:41;;;;;;;8.20;3.70;;;25.40;99.90;;;;;;1916952;75;21179;-77
2022/05/18 09:55:32;;;;;;;6.70;3.30;;;25.40;99.90;;;;;;1917043;75;21550;-77
2022/05/18 09:58:27;;;;;;;6.87;3.60;;;25.60;99.90;;;;;;1916894;75;21092;-77
2022/05/18 10:07:44;;;;;;;8.43;3.35;;;25.80;99.90;;;;;;1917537;75;21523;-78
2022/05/18 10:10:38;;;;;;;6.80;3.05;;;25.90;99.90;;;;;;1917583;75;21172;-78
2022/05/18 10:13:32;;;;;;;7.87;3.33;;;25.80;99.90;;;;;;1917618;75;21064;-78
2022/05/18 10:16:34;;;;;;;6.37;3.27;;;26.00;99.90;;;;;;1931852;73;21231;-77
2022/05/18 10:19:28;;;;;;;9.45;3.75;;;26.10;99.90;;;;;;1917645;75;21161;-78
2022/05/18 10:22:24;;;;;;;6.70;2.72;;;26.20;99.90;;;;;;1917684;75;21591;-77
2022/05/18 10:25:20;;;;;;;8.28;2.80;;;26.20;99.90;;;;;;1883431;75;21561;-77
2022/05/18 10:28:21;;;;;;;6.80;3.15;;;26.30;99.90;;;;;;1928790;73;21121;-77
2022/05/18 10:31:18;;;;;;;5.70;3.23;;;26.30;99.90;;;;;;1917797;75;21128;-77
2022/05/18 10:34:12;;;;;;;;;;;26.50;99.90;;;;;;1920456;75;21350;-78
2022/05/18 10:37:04;;;;;;;5.92;2.80;;;26.50;99.90;;;;;;1940556;73;20213;-77
2022/05/18 10:40:01;;;;;;;7.50;2.87;;;26.60;99.90;;;;;;1917662;75;21178;-77
2022/05/18 10:42:55;;;;;;;4.53;2.85;;;26.70;99.90;;;;;;1880806;76;21063;-77
2022/05/18 10:45:54;;;;;;;5.30;2.70;;;26.80;99.90;;;;;;1917695;73;21588;-77
2022/05/18 10:48:53;;;;;;;5.60;3.30;;;26.90;99.90;;;;;;1930039;73;21105;-77
2022/05/18 10:51:45;;;;;;;3.85;2.70;;;26.90;99.90;;;;;;1928511;73;21576;-77
2022/05/18 10:54:38;;;;;;;7.78;2.92;;;27.00;99.90;;;;;;1886635;75;21067;-77
2022/05/18 10:57:34;;;;;;;4.95;2.87;;;27.10;99.90;;;;;;1917102;75;21046;-77
2022/05/18 11:00:34;;;;;;;10.03;2.47;;;27.20;99.90;;;;;;1880185;76;21586;-77
2022/05/18 11:03:54;;;;;;;6.17;2.72;;;27.20;99.90;;;;;;1916893;75;21110;-77
2022/05/18 11:06:45;;;;;;;5.08;2.60;;;27.40;99.90;;;;;;1917024;75;21119;-77
2022/05/18 11:09:37;;;;;;;5.30;2.80;;;27.50;99.90;;;;;;1889432;75;21063;-77
2022/05/18 11:12:38;;;;;;;5.05;2.77;;;27.50;99.90;;;;;;1921316;73;21137;-77
2022/05/18 11:15:35;;;;;;;9.33;3.17;;;27.50;99.90;;;;;;1926408;73;21071;-77
2022/05/18 11:18:29;;;;;;;4.62;2.83;;;27.60;99.90;;;;;;1916788;75;21156;-77
2022/05/18 11:21:24;;;;;;;7.90;2.90;;;27.60;99.90;;;;;;1917004;75;21126;-77
2022/05/18 11:24:20;;;;;;;6.00;2.87;;;27.70;99.90;;;;;;1916711;75;21611;-78
2022/05/18 11:27:18;;;;;;;6.40;2.58;;;27.70;99.90;;;;;;1916669;75;21498;-77
2022/05/18 11:30:12;;;;;;;5.08;4.17;;;27.80;99.90;;;;;;1916882;75;21051;-77
2022/05/18 11:33:09;;;;;;;5.03;2.58;;;28.00;99.90;;;;;;1916977;75;21054;-77
2022/05/18 11:36:04;;;;;;;5.37;2.65;;;28.10;99.90;;;;;;1916969;75;21588;-77
2022/05/18 11:39:04;;;;;;;5.10;2.37;;;28.20;99.90;;;;;;1940142;73;21125;-77
2022/05/18 11:42:12;;;;;;;3.60;2.15;;;28.20;99.90;;;;;;1879792;76;21072;-77
2022/05/18 11:45:10;;;;;;;3.35;2.67;;;28.20;99.90;;;;;;1932622;74;21157;-77
2022/05/18 11:48:12;;;;;;;4.65;2.45;;;28.40;99.90;;;;;;1920655;74;21113;-77
2022/05/18 11:51:07;;;;;;;4.78;2.17;;;28.50;99.90;;;;;;1939674;73;21102;-77
2022/05/18 11:54:04;;;;;;;5.45;2.67;;;28.50;99.90;;;;;;1916993;75;21043;-77
2022/05/18 11:57:01;;;;;;;3.08;2.20;;;28.50;99.90;;;;;;1917107;75;21151;-77
2022/05/18 12:00:07;;;;;;;3.77;2.87;;;28.50;99.90;;;;;;1917112;75;21138;-77
2022/05/18 12:03:21;;;;;;;6.65;2.20;;;28.60;99.90;;;;;;1889798;75;21086;-76
2022/05/18 12:06:40;;;;;;;5.78;2.40;;;28.70;99.90;;;;;;1928103;73;21112;-77
2022/05/18 12:09:45;;;;;;;3.65;2.40;;;28.80;99.90;;;;;;1940825;73;21118;-77
2022/05/18 12:12:40;;;;;;;6.45;2.30;;;28.90;99.90;;;;;;1916990;75;21124;-76
2022/05/18 12:15:38;;;;;;;5.53;2.87;;;29.10;99.90;;;;;;1916578;75;21509;-77
2022/05/18 12:18:34;;;;;;;7.00;2.77;;;29.10;99.90;;;;;;1916975;75;21166;-77
2022/05/18 12:21:29;;;;;;;5.25;2.45;;;29.10;99.90;;;;;;1916977;75;21055;-77
2022/05/18 12:24:22;;;;;;;3.40;2.27;;;29.00;99.90;;;;;;1916923;75;21048;-77
2022/05/18 12:27:16;;;;;;;4.85;1.92;;;29.10;99.90;;;;;;1887543;75;21059;-77
2022/05/18 12:30:12;;;;;;;3.90;2.45;;;29.10;99.90;;;;;;1925072;73;21079;-77
2022/05/18 12:33:05;;;;;;;4.47;2.70;;;29.20;99.90;;;;;;1916884;75;21063;-77
2022/05/18 12:36:05;;;;;;;6.33;2.52;;;29.40;99.90;;;;;;1916749;75;21168;-78
2022/05/18 12:39:01;;;;;;;3.77;2.30;;;29.40;99.90;;;;;;1880132;76;21196;-77
2022/05/18 12:41:55;;;;;;;3.75;2.40;;;29.50;99.90;;;;;;1918000;74;21096;-77
2022/05/18 12:44:53;;;;;;;4.78;2.22;;;29.60;99.90;;;;;;1918992;73;21167;-77
2022/05/18 12:47:48;;;;;;;3.65;2.47;;;29.70;99.90;;;;;;1916911;75;21158;-77
2022/05/18 12:50:45;;;;;;;6.92;2.45;;;29.90;99.90;;;;;;1895159;75;21098;-77
2022/05/18 12:54:02;;;;;;;5.17;2.75;;;30.00;99.90;;;;;;1917114;75;21499;-77
2022/05/18 12:57:15;;;;;;;5.33;2.60;;;30.10;99.90;;;;;;1917038;75;21055;-77
2022/05/18 13:00:46;;;;;;;3.67;2.33;;;30.10;99.90;;;;;;1917038;75;21078;-77
2022/05/18 13:03:58;;;;;;;6.40;2.87;;;30.10;99.90;;;;;;1916980;75;21119;-77
2022/05/18 13:06:54;;;;;;;3.80;2.47;;;30.10;99.90;;;;;;1916866;75;21099;-77
2022/05/18 13:12:39;;;;;;;3.87;2.40;;;30.10;99.90;;;;;;1976037;72;22127;-77
2022/05/18 13:15:56;;;;;;;4.42;2.30;;;30.00;99.90;;;;;;1928510;73;21116;-77
2022/05/18 13:19:09;;;;;;;;;;;30.00;99.90;;;;;;1924874;73;21200;-78
2022/05/18 13:22:10;;;;;;;4.25;2.47;;;30.10;99.90;;;;;;1940351;73;20155;-77
2022/05/18 13:25:04;;;;;;;3.62;2.20;;;30.10;99.90;;;;;;1917646;75;21064;-78
2022/05/18 13:27:58;;;;;;;5.45;2.40;;;30.20;99.90;;;;;;1917674;75;21165;-77
2022/05/18 13:30:52;;;;;;;7.50;2.35;;;30.10;99.90;;;;;;1917627;75;21460;-78
2022/05/18 13:33:51;;;;;;;7.27;3.00;;;30.20;99.90;;;;;;1924884;73;21127;-78
2022/05/18 13:36:50;;;;;;;2.67;2.20;;;30.20;99.90;;;;;;1928786;73;21281;-78
2022/05/18 13:39:46;;;;;;;4.87;2.55;;;30.40;99.90;;;;;;1929518;73;21070;-77
2022/05/18 13:42:38;;;;;;;8.00;2.90;;;30.50;99.90;;;;;;1917809;75;21568;-78
2022/05/18 13:45:31;;;;;;;3.72;2.10;;;30.60;99.90;;;;;;1917790;75;21116;-78
2022/05/18 13:48:26;;;;;;;4.22;2.50;;;30.70;99.90;;;;;;1917616;75;21055;-78
2022/05/18 13:51:20;;;;;;;4.97;2.33;;;30.90;99.90;;;;;;1917464;75;21099;-78
2022/05/18 13:54:15;;;;;;;3.67;2.33;;;31.00;99.90;;;;;;1917558;75;21109;-79
2022/05/18 13:57:09;;;;;;;4.12;2.30;;;31.00;99.90;;;;;;1917795;75;21150;-78
2022/05/18 14:00:05;;;;;;;4.87;2.37;;;31.20;99.90;;;;;;1927788;73;21082;-78
2022/05/18 14:03:00;;;;;;;4.47;2.25;;;31.60;99.90;;;;;;1922290;73;21110;-77
2022/05/18 14:05:59;;;;;;;4.87;2.20;;;31.90;99.90;;;;;;1917372;75;21056;-79
2022/05/18 14:08:58;;;;;;;4.35;2.40;;;32.10;99.90;;;;;;1938773;73;21117;-78
2022/05/18 14:11:49;;;;;;;2.87;2.12;;;32.20;99.70;;;;;;1924877;74;21078;-78
2022/05/18 14:14:41;;;;;;;4.62;2.65;;;32.50;99.30;;;;;;1933713;74;21482;-78
2022/05/18 14:17:35;;;;;;;5.60;2.58;;;32.80;98.40;;;;;;1933574;74;21148;-78
2022/05/18 14:20:33;;;;;;;5.22;2.40;;;33.00;97.80;;;;;;1933579;74;21093;-78
2022/05/18 14:23:29;;;;;;;2.98;2.37;;;32.90;97.70;;;;;;1933210;74;21062;-78
2022/05/18 14:26:24;;;;;;;5.15;2.15;;;33.10;96.80;;;;;;1933090;74;21055;-78
2022/05/18 14:29:20;;;;;;;4.42;2.55;;;33.10;96.70;;;;;;1945312;73;21108;-79
2022/05/18 14:32:14;;;;;;;6.95;2.50;;;33.30;96.40;;;;;;1937192;73;21091;-77
2022/05/18 14:35:07;;;;;;;7.33;2.35;;;33.30;96.30;;;;;;1933009;74;21050;-78
2022/05/18 14:38:10;;;;;;;4.08;2.12;;;33.20;95.50;;;;;;1933093;74;21564;-78
2022/05/18 14:41:05;;;;;;;4.37;2.20;;;33.40;95.10;;;;;;1836047;78;21611;-78
2022/05/18 14:44:00;;;;;;;6.15;2.47;;;33.50;94.80;;;;;;1818223;78;21074;-78
2022/05/18 14:49:41;;;;;;;4.03;2.22;;;33.60;94.00;;;;;;1943716;72;22159;-78
2022/05/18 14:52:54;;;;;;;;;;;33.60;93.40;;;;;;1877711;75;21149;-77
2022/05/18 14:55:48;;;;;;;3.72;2.00;;;33.60;92.80;;;;;;1886322;75;20119;-77
2022/05/18 14:58:43;;;;;;;3.60;1.90;;;33.60;92.50;;;;;;1873034;75;21105;-77
2022/05/18 15:01:38;;;;;;;4.00;2.30;;;33.70;91.90;;;;;;1883138;75;21102;-78
2022/05/18 15:04:32;;;;;;;3.22;2.37;;;33.70;92.20;;;;;;1883589;75;21047;-77
2022/05/18 15:07:27;;;;;;;5.30;2.42;;;34.00;92.00;;;;;;1883482;75;21063;-78
2022/05/18 15:10:23;;;;;;;3.58;2.22;;;34.30;92.20;;;;;;1886521;75;21172;-79
2022/05/18 15:13:20;;;;;;;6.97;2.58;;;34.30;91.10;;;;;;1872988;76;21114;-79
2022/05/18 15:16:12;;;;;;;3.77;2.30;;;34.20;91.00;;;;;;1894888;75;21582;-77
2022/05/18 15:19:06;;;;;;;3.72;2.20;;;34.40;90.50;;;;;;1894443;75;21050;-78
2022/05/18 15:22:09;;;;;;;5.47;2.08;;;34.60;89.30;;;;;;1894871;75;21150;-78
2022/05/18 15:25:22;;;;;;;3.02;2.05;;;35.00;88.20;;;;;;1873013;76;21145;-78
2022/05/18 15:28:19;;;;;;;5.25;2.47;;;35.00;83.40;;;;;;1870175;76;21133;-78
2022/05/18 15:31:15;;;;;;;2.65;1.80;;;34.70;84.00;;;;;;1881772;76;21529;-78
2022/05/18 15:34:11;;;;;;;2.80;2.12;;;34.60;84.40;;;;;;1884338;75;21049;-78
2022/05/18 15:37:03;;;;;;;4.78;2.20;;;34.40;83.60;;;;;;1883637;75;21052;-78
2022/05/18 15:39:55;;;;;;;5.92;2.27;;;34.50;84.30;;;;;;1883358;75;21960;-80
2022/05/18 15:42:47;;;;;;;3.95;1.80;;;34.40;82.70;;;;;;1905169;75;21044;-79
2022/05/18 15:45:40;;;;;;;6.78;2.30;;;34.40;81.60;;;;;;1873088;76;21165;-79
2022/05/18 15:48:33;;;;;;;2.75;2.00;;;34.20;81.90;;;;;;1893839;75;21083;-78
2022/05/18 15:51:27;;;;;;;2.65;2.00;;;34.10;82.90;;;;;;1893208;75;21166;-78
2022/05/18 15:54:23;;;;;;;5.08;1.90;;;34.30;82.40;;;;;;1872957;76;21105;-78
2022/05/18 15:57:17;;;;;;;2.77;2.00;;;34.40;81.40;;;;;;1890515;75;21040;-78
2022/05/18 16:00:11;;;;;;;4.85;1.90;;;34.40;80.70;;;;;;1854304;76;21517;-80
2022/05/18 16:03:02;;;;;;;3.85;2.20;;;34.30;81.90;;;;;;1874737;74;21580;-78
2022/05/18 16:05:54;;;;;;;3.67;2.08;;;34.30;81.60;;;;;;1894198;75;21577;-80
2022/05/18 16:08:46;;;;;;;2.40;1.82;;;34.20;81.00;;;;;;1903544;75;21052;-79
2022/05/18 16:11:41;;;;;;;3.27;2.00;;;34.20;80.70;;;;;;1881403;75;21174;-80
2022/05/18 16:14:33;;;;;;;2.87;2.20;;;34.50;80.30;;;;;;1894751;75;21059;-79
2022/05/18 16:17:43;;;;;;;6.35;2.20;;;34.40;79.20;;;;;;1894643;75;21153;-78
2022/05/18 16:20:35;;;;;;;5.33;2.15;;;34.40;78.90;;;;;;1877587;75;21129;-79
2022/05/18 16:23:28;;;;;;;2.83;1.75;;;34.50;78.80;;;;;;1847380;77;21078;-79
2022/05/18 16:26:22;;;;;;;5.12;2.05;;;34.50;78.50;;;;;;1891713;75;21043;-80
2022/05/18 16:29:18;;;;;;;5.37;1.87;;;34.90;78.10;;;;;;1895848;75;21111;-78
2022/05/18 16:32:10;;;;;;;3.75;2.00;;;35.10;77.90;;;;;;1905417;75;21239;-78
2022/05/18 16:35:03;;;;;;;5.12;2.17;;;35.10;76.80;;;;;;1839573;77;21137;-78
2022/05/18 16:37:55;;;;;;;4.45;2.08;;;34.80;76.80;;;;;;1842224;77;21144;-78
2022/05/18 16:40:48;;;;;;;5.10;1.85;;;34.80;77.20;;;;;;1888043;75;21158;-78
2022/05/18 16:43:40;;;;;;;3.90;2.10;;;34.50;76.80;;;;;;1883829;75;21114;-80
2022/05/18 16:46:34;;;;;;;5.55;2.27;;;34.30;77.30;;;;;;1880959;75;21139;-80
2022/05/18 16:49:28;;;;;;;3.00;1.80;;;34.30;77.80;;;;;;1898008;74;21613;-78
2022/05/18 16:52:20;;;;;;;4.83;1.90;;;34.10;78.30;;;;;;1879656;76;21063;-79
2022/05/18 16:55:13;;;;;;;6.90;1.98;;;33.50;79.40;;;;;;1889845;75;21092;-79
2022/05/18 16:58:06;;;;;;;4.50;1.77;;;32.50;81.60;;;;;;1887615;75;21048;-78
2022/05/18 17:00:59;;;;;;;4.37;1.90;;;32.20;82.20;;;;;;1888002;75;21072;-78
2022/05/18 17:03:51;;;;;;;3.98;2.00;;;32.10;83.70;;;;;;1892377;75;21208;-78
2022/05/18 17:06:42;;;;;;;5.85;2.12;;;32.00;84.20;;;;;;1892821;75;21047;-78
2022/05/18 17:09:34;;;;;;;3.40;1.90;;;32.00;84.50;;;;;;1888205;75;21055;-78
2022/05/18 17:12:27;;;;;;;2.75;1.90;;;31.90;84.60;;;;;;1889263;75;21188;-78
2022/05/18 17:15:18;;;;;;;3.10;1.98;;;32.00;84.70;;;;;;1854314;76;21086;-78
2022/05/18 17:18:10;;;;;;;4.92;1.95;;;32.10;85.20;;;;;;1834827;77;21119;-79
2022/05/18 17:21:05;;;;;;;4.08;1.90;;;32.20;84.70;;;;;;1876768;75;21088;-78
2022/05/18 17:23:57;;;;;;;4.87;2.00;;;32.10;85.20;;;;;;1882835;75;21096;-78
2022/05/18 17:27:12;;;;;;;3.22;2.08;;;31.70;86.20;;;;;;1885889;75;21080;-78
2022/05/18 17:29:50;;;;;;;4.03;2.20;;;31.60;86.90;;;;;;1889705;75;21102;-78
2022/05/18 17:32:45;;;;;;;3.02;1.92;;;31.50;87.40;;;;;;1875360;76;21059;-78
2022/05/18 17:35:39;;;;;;;4.62;2.08;;;31.40;87.80;;;;;;1886988;75;21032;-78
2022/05/18 17:38:31;;;;;;;6.30;1.90;;;31.40;88.00;;;;;;1847346;76;21109;-78
2022/05/18 17:41:22;;;;;;;4.80;2.05;;;31.30;87.90;;;;;;1849736;77;21137;-79
2022/05/18 17:44:16;;;;;;;4.05;1.85;;;31.20;88.10;;;;;;1833760;77;21088;-80
2022/05/18 17:47:10;;;;;;;3.30;2.10;;;31.10;87.90;;;;;;1887673;75;21118;-79